Time;durP1;ratioP1;P1;durP2;ratioP2;P2;SDS_P1;SDS_P2;PMS_P1;PMS_P2;Temp;Humidity;BMP_temperature;BMP_pressure;BME280_temperature;BME280_humidity;BME280_pressure;Samples;Min_cycle;Max_cycle;Signal;HPM_P1;HPM_P2
2021/11/12 00:03:22;;;;;;;154.63;68.35;;;7.40;99.90;;;;;;5022202;28;19925;-73
2021/11/12 00:13:47;;;;;;;159.63;69.82;;;7.40;99.90;;;;;;5019699;28;20295;-73
2021/11/12 00:16:14;;;;;;;170.20;71.43;;;7.50;99.90;;;;;;5022747;28;20053;-73
2021/11/12 00:18:42;;;;;;;148.10;67.40;;;7.50;99.90;;;;;;5004800;28;20057;-72
2021/11/12 00:21:09;;;;;;;157.02;68.65;;;7.60;99.90;;;;;;5024823;28;20165;-73
2021/11/12 00:23:38;;;;;;;156.63;69.80;;;7.60;99.90;;;;;;5005978;28;20064;-73
2021/11/12 00:26:05;;;;;;;161.93;74.10;;;7.60;99.90;;;;;;5025229;28;20053;-72
2021/11/12 00:28:37;;;;;;;159.35;68.63;;;7.70;99.90;;;;;;5026503;28;20180;-73
2021/11/12 00:37:09;;;;;;;149.60;63.53;;;7.70;99.90;;;;;;5025319;28;20055;-73
2021/11/12 00:39:41;;;;;;;146.32;61.70;;;7.60;99.90;;;;;;5025829;28;20511;-73
2021/11/12 00:49:48;;;;;;;153.25;67.32;;;7.40;99.90;;;;;;5025630;28;20053;-72
2021/11/12 00:52:37;;;;;;;152.75;64.10;;;7.40;99.90;;;;;;5005476;28;20122;-73
2021/11/12 00:55:03;;;;;;;165.32;67.70;;;7.60;99.90;;;;;;5022016;28;20424;-73
2021/11/12 00:57:32;;;;;;;149.93;64.15;;;7.60;99.90;;;;;;5035435;28;20048;-73
2021/11/12 00:59:59;;;;;;;143.45;61.95;;;7.70;99.90;;;;;;5011996;28;20049;-73
2021/11/12 01:02:27;;;;;;;145.52;61.85;;;7.80;99.90;;;;;;5012420;28;20048;-73
2021/11/12 01:04:54;;;;;;;149.90;64.15;;;7.70;99.90;;;;;;4991109;28;20111;-72
2021/11/12 01:07:21;;;;;;;152.82;63.25;;;7.60;99.90;;;;;;5025518;28;20551;-72
2021/11/12 01:09:50;;;;;;;148.95;62.53;;;7.60;99.90;;;;;;5026138;28;20065;-73
2021/11/12 01:12:17;;;;;;;146.65;63.78;;;7.50;99.90;;;;;;5024003;28;20041;-73
2021/11/12 01:14:43;;;;;;;157.38;62.35;;;7.50;99.90;;;;;;5008099;28;20091;-73
2021/11/12 01:17:10;;;;;;;141.60;61.45;;;7.60;99.90;;;;;;5025838;28;20053;-73
2021/11/12 01:19:37;;;;;;;146.75;62.70;;;7.60;99.90;;;;;;5023861;28;20214;-73
2021/11/12 01:22:05;;;;;;;151.30;64.07;;;7.60;99.90;;;;;;5024136;28;20307;-73
2021/11/12 01:24:32;;;;;;;151.65;62.78;;;7.70;99.90;;;;;;5005155;28;20060;-73
2021/11/12 01:26:59;;;;;;;146.65;61.92;;;7.70;99.90;;;;;;5024252;28;20045;-73
2021/11/12 01:29:25;;;;;;;143.85;63.13;;;7.70;99.90;;;;;;5025562;28;20127;-72
2021/11/12 01:31:52;;;;;;;134.27;59.28;;;7.70;99.90;;;;;;5023381;28;20041;-73
2021/11/12 01:34:19;;;;;;;135.27;57.78;;;7.60;99.90;;;;;;5005943;28;20515;-73
2021/11/12 01:36:47;;;;;;;115.65;48.45;;;7.60;99.90;;;;;;5023906;28;20243;-73
2021/11/12 01:39:17;;;;;;;109.60;46.50;;;7.60;99.90;;;;;;5024075;28;20049;-73
2021/11/12 01:41:50;;;;;;;113.32;48.10;;;7.50;99.90;;;;;;5024487;28;20057;-72
2021/11/12 01:44:28;;;;;;;105.68;45.80;;;7.50;99.90;;;;;;5007665;28;20496;-73
2021/11/12 01:57:32;;;;;;;100.25;45.17;;;7.40;99.90;;;;;;5003561;28;20045;-72
2021/11/12 01:59:58;;;;;;;113.55;46.85;;;7.40;99.90;;;;;;5022147;28;20060;-73
2021/11/12 02:02:26;;;;;;;97.25;43.00;;;7.40;99.90;;;;;;5005245;28;20057;-73
2021/11/12 02:04:55;;;;;;;99.03;42.95;;;7.40;99.90;;;;;;5025270;28;20065;-73
2021/11/12 02:07:22;;;;;;;98.60;42.63;;;7.40;99.90;;;;;;5013244;28;20049;-73
2021/11/12 02:09:49;;;;;;;94.05;41.38;;;7.40;99.90;;;;;;5018470;28;20090;-73
2021/11/12 02:12:27;;;;;;;102.15;44.05;;;7.40;99.90;;;;;;5022903;28;20196;-73
2021/11/12 02:14:56;;;;;;;95.22;40.33;;;7.30;99.90;;;;;;5026253;28;20104;-73
2021/11/12 02:17:27;;;;;;;95.43;41.50;;;7.30;99.90;;;;;;5024474;28;20119;-73
2021/11/12 02:20:00;;;;;;;93.57;39.70;;;7.30;99.90;;;;;;5007457;28;20148;-73
2021/11/12 02:22:31;;;;;;;92.75;42.33;;;7.30;99.90;;;;;;5023048;28;20061;-73
2021/11/12 02:25:09;;;;;;;96.93;41.55;;;7.30;99.90;;;;;;5023738;28;20329;-73
2021/11/12 02:27:44;;;;;;;93.43;40.67;;;7.30;99.90;;;;;;5023548;28;20538;-73
2021/11/12 02:30:20;;;;;;;91.10;40.75;;;7.20;99.90;;;;;;5023157;28;20049;-73
2021/11/12 02:33:04;;;;;;;89.15;39.08;;;7.20;99.90;;;;;;5023712;28;20534;-72
2021/11/12 02:35:34;;;;;;;83.97;38.83;;;7.20;99.90;;;;;;5024028;28;20053;-73
2021/11/12 02:38:04;;;;;;;93.03;41.30;;;7.20;99.90;;;;;;5006196;28;20056;-73
2021/11/12 02:40:32;;;;;;;88.25;39.92;;;7.20;99.90;;;;;;4989100;28;20266;-73
2021/11/12 02:42:59;;;;;;;84.30;39.67;;;7.10;99.90;;;;;;5006496;28;20053;-73
2021/11/12 02:45:26;;;;;;;91.00;41.45;;;7.10;99.90;;;;;;5023248;28;20115;-73
2021/11/12 02:47:53;;;;;;;89.28;41.45;;;7.10;99.90;;;;;;5023835;28;20049;-73
2021/11/12 02:50:21;;;;;;;110.68;44.17;;;7.10;99.90;;;;;;5005984;28;20087;-72
2021/11/12 02:52:53;;;;;;;116.72;47.22;;;7.20;99.90;;;;;;5023896;28;20061;-73
2021/11/12 02:55:20;;;;;;;119.72;48.13;;;7.10;99.90;;;;;;5003374;28;20112;-73
2021/11/12 02:57:47;;;;;;;121.15;49.75;;;7.10;99.90;;;;;;4988538;28;20061;-72
2021/11/12 03:00:16;;;;;;;117.32;47.60;;;7.10;99.90;;;;;;5022428;28;20131;-72
2021/11/12 03:02:42;;;;;;;125.82;48.83;;;7.10;99.90;;;;;;5043584;28;20053;-72
2021/11/12 03:05:09;;;;;;;134.43;49.15;;;7.10;99.90;;;;;;5025851;28;20477;-72
2021/11/12 03:07:37;;;;;;;138.57;47.88;;;7.00;99.90;;;;;;5025782;28;20553;-72
2021/11/12 03:10:05;;;;;;;126.60;46.55;;;6.90;99.90;;;;;;5027618;28;20053;-72
2021/11/12 03:12:32;;;;;;;136.20;47.95;;;6.80;99.90;;;;;;5025406;28;20555;-72
2021/11/12 03:14:59;;;;;;;132.20;46.50;;;6.80;99.90;;;;;;5023905;28;20057;-72
2021/11/12 03:17:26;;;;;;;124.53;45.50;;;6.70;99.90;;;;;;5029360;28;20052;-72
2021/11/12 03:19:53;;;;;;;128.35;46.58;;;6.50;99.90;;;;;;4989036;28;20068;-72
2021/11/12 03:22:22;;;;;;;136.52;48.25;;;6.50;99.90;;;;;;5000288;28;20056;-72
2021/11/12 03:25:00;;;;;;;138.60;42.88;;;6.60;99.90;;;;;;5004814;28;20041;-72
2021/11/12 03:27:44;;;;;;;139.77;46.10;;;6.50;99.90;;;;;;5001180;28;20057;-73
2021/11/12 03:30:39;;;;;;;141.75;46.42;;;6.40;99.90;;;;;;5004897;28;20057;-72
2021/11/12 03:49:55;;;;;;;159.40;48.85;;;6.20;99.90;;;;;;5024030;28;19975;-72
2021/11/12 04:00:42;;;;;;;;;;;6.20;99.90;;;;;;5007628;28;20061;-72
2021/11/12 04:03:18;;;;;;;163.95;51.95;;;6.20;99.90;;;;;;5026803;28;19925;-72
2021/11/12 04:20:16;;;;;;;101.38;32.97;;;6.20;99.90;;;;;;5026615;28;19921;-72
2021/11/12 05:12:11;;;;;;;100.72;34.25;;;5.70;99.90;;;;;;5025202;28;20033;-73
2021/11/12 05:34:11;;;;;;;;;;;5.90;99.90;;;;;;5001531;28;20504;-72
2021/11/12 05:44:43;;;;;;;69.38;27.20;;;5.90;99.90;;;;;;5025402;28;20064;-73
2021/11/12 05:50:11;;;;;;;;;;;5.90;99.90;;;;;;5023306;28;20333;-72
2021/11/12 05:55:23;;;;;;;;;;;5.70;99.90;;;;;;5005791;28;20175;-72
2021/11/12 05:57:51;;;;;;;43.65;16.52;;;5.70;99.90;;;;;;5010457;28;20465;-72
2021/11/12 06:00:19;;;;;;;56.72;20.88;;;5.60;99.90;;;;;;5045311;28;20060;-73
2021/11/12 06:02:46;;;;;;;52.83;21.13;;;5.60;99.90;;;;;;5026700;28;20049;-72
2021/11/12 06:05:16;;;;;;;50.10;20.17;;;5.60;99.90;;;;;;5043653;28;20053;-72
2021/11/12 06:07:44;;;;;;;53.67;20.80;;;5.60;99.90;;;;;;5044824;28;20122;-72
2021/11/12 06:10:11;;;;;;;54.53;19.88;;;5.50;99.90;;;;;;5044141;28;20299;-72
2021/11/12 06:12:38;;;;;;;60.42;24.20;;;5.50;99.90;;;;;;5044502;28;20499;-72
2021/11/12 06:15:05;;;;;;;59.42;23.55;;;5.50;99.90;;;;;;5045033;28;20307;-72
2021/11/12 06:17:33;;;;;;;60.38;24.05;;;5.50;99.90;;;;;;5026184;28;20060;-72
2021/11/12 06:20:00;;;;;;;69.72;25.15;;;5.50;99.90;;;;;;5043457;28;20713;-72
2021/11/12 06:22:27;;;;;;;60.28;23.30;;;5.40;99.90;;;;;;5013845;28;21662;-73
2021/11/12 06:24:54;;;;;;;84.70;31.80;;;5.40;99.90;;;;;;5005981;28;20045;-72
2021/11/12 06:27:21;;;;;;;70.85;28.75;;;5.40;99.90;;;;;;5024361;28;20045;-72
2021/11/12 06:29:48;;;;;;;74.63;30.05;;;5.40;99.90;;;;;;5007024;28;20057;-72
2021/11/12 06:32:15;;;;;;;73.90;30.75;;;5.30;99.90;;;;;;5004227;28;20045;-72
2021/11/12 06:34:43;;;;;;;65.60;26.20;;;5.40;99.90;;;;;;5023954;28;20053;-73
2021/11/12 06:37:11;;;;;;;77.82;32.00;;;5.40;99.90;;;;;;5006389;28;20500;-72
2021/11/12 06:39:38;;;;;;;71.05;29.92;;;5.20;99.90;;;;;;5006150;28;20053;-72
2021/11/12 06:42:26;;;;;;;68.28;26.92;;;5.20;99.90;;;;;;5005900;28;20067;-72
2021/11/12 06:49:19;;;;;;;70.05;29.30;;;5.20;99.90;;;;;;5005957;28;20049;-72
2021/11/12 06:50:28;;;;;;;70.60;32.25;;;5.20;99.90;;;;;;5004259;28;20594;-72
2021/11/12 06:52:55;;;;;;;68.45;33.03;;;5.10;99.90;;;;;;5017355;28;20053;-72
2021/11/12 06:55:22;;;;;;;78.85;32.88;;;5.00;99.90;;;;;;5022280;28;20107;-72
2021/11/12 06:57:49;;;;;;;75.13;33.20;;;4.90;99.90;;;;;;5005352;28;20053;-72
2021/11/12 07:00:18;;;;;;;84.82;34.42;;;4.90;99.90;;;;;;5005821;28;20080;-72
2021/11/12 07:02:46;;;;;;;84.20;34.35;;;4.90;99.90;;;;;;5023886;28;20068;-72
2021/11/12 07:05:14;;;;;;;89.32;36.10;;;5.00;99.90;;;;;;5004399;28;20522;-72
2021/11/12 07:07:42;;;;;;;87.72;36.05;;;5.00;99.90;;;;;;5005924;28;20045;-72
2021/11/12 07:10:10;;;;;;;90.95;37.45;;;5.00;99.90;;;;;;5006170;28;20057;-72
2021/11/12 07:12:36;;;;;;;86.55;34.25;;;5.00;99.90;;;;;;5024064;28;20076;-72
2021/11/12 07:15:04;;;;;;;75.38;29.85;;;5.10;99.90;;;;;;5004859;28;20045;-72
2021/11/12 07:17:31;;;;;;;81.07;32.53;;;5.00;99.90;;;;;;5004340;28;20053;-72
2021/11/12 07:19:58;;;;;;;83.90;33.95;;;4.80;99.90;;;;;;5005768;28;20054;-72
2021/11/12 07:22:24;;;;;;;89.97;32.35;;;4.70;99.90;;;;;;5036023;28;20056;-73
2021/11/12 07:24:51;;;;;;;81.82;31.95;;;4.70;99.90;;;;;;5021511;28;20107;-72
2021/11/12 07:27:18;;;;;;;81.55;31.95;;;4.60;99.90;;;;;;5005697;28;20053;-72
2021/11/12 07:30:08;;;;;;;85.00;34.83;;;4.60;99.90;;;;;;5025121;28;20049;-72
2021/11/12 07:32:35;;;;;;;96.85;38.45;;;4.50;99.90;;;;;;5025055;28;20505;-72
2021/11/12 07:35:02;;;;;;;87.07;33.30;;;4.50;99.90;;;;;;5027585;28;20046;-72
2021/11/12 07:37:30;;;;;;;91.90;36.03;;;4.40;99.90;;;;;;5027795;28;20046;-74
2021/11/12 07:39:59;;;;;;;98.15;37.38;;;4.40;99.90;;;;;;5028016;28;20165;-72
2021/11/12 07:42:35;;;;;;;94.32;33.92;;;4.30;99.90;;;;;;5010697;28;20124;-72
2021/11/12 07:45:21;;;;;;;112.90;35.75;;;4.20;99.90;;;;;;5009621;28;20049;-72
2021/11/12 07:47:48;;;;;;;110.13;36.93;;;4.20;99.90;;;;;;4989649;28;20049;-72
2021/11/12 07:50:14;;;;;;;151.52;38.65;;;4.10;99.90;;;;;;5007034;28;20318;-72
2021/11/12 07:52:41;;;;;;;119.35;33.15;;;4.10;99.90;;;;;;5001759;28;20542;-72
2021/11/12 07:55:12;;;;;;;123.45;36.30;;;4.10;99.90;;;;;;5006482;28;20107;-72
2021/11/12 07:57:38;;;;;;;120.22;33.40;;;4.00;99.90;;;;;;5008571;28;20034;-72
2021/11/12 08:00:07;;;;;;;105.00;35.80;;;4.10;99.90;;;;;;5009114;28;20436;-72
2021/11/12 08:02:43;;;;;;;97.43;30.73;;;4.10;99.90;;;;;;5026536;28;20054;-72
2021/11/12 08:05:19;;;;;;;95.57;31.10;;;4.00;99.90;;;;;;5007728;28;20499;-72
2021/11/12 08:07:46;;;;;;;102.55;30.83;;;4.00;99.90;;;;;;5026969;28;20488;-72
2021/11/12 08:10:17;;;;;;;96.38;31.88;;;4.10;99.90;;;;;;5027036;28;20045;-72
2021/11/12 08:12:55;;;;;;;101.45;30.10;;;4.00;99.90;;;;;;5027693;28;20045;-72
2021/11/12 08:16:04;;;;;;;94.93;30.85;;;4.00;99.90;;;;;;5008358;28;20173;-72
2021/11/12 08:21:11;;;;;;;;;;;4.00;99.90;;;;;;5026961;28;20420;-72
2021/11/12 08:24:03;;;;;;;85.43;29.35;;;4.00;99.90;;;;;;5022799;28;20019;-72
2021/11/12 08:26:42;;;;;;;84.93;28.10;;;4.10;99.90;;;;;;5023135;28;20072;-72
2021/11/12 08:37:20;;;;;;;86.75;29.50;;;3.90;99.90;;;;;;5022753;28;20362;-72
2021/11/12 08:42:25;;;;;;;89.50;28.48;;;4.00;99.90;;;;;;5024488;28;20042;-72
2021/11/12 08:44:58;;;;;;;83.07;27.00;;;4.00;99.90;;;;;;5008460;28;20107;-72
2021/11/12 08:47:32;;;;;;;98.82;27.33;;;3.90;99.90;;;;;;5025136;28;20469;-72
2021/11/12 08:50:03;;;;;;;98.95;30.60;;;4.00;99.90;;;;;;5026192;28;20061;-72
2021/11/12 08:52:30;;;;;;;95.43;31.42;;;4.00;99.90;;;;;;5025390;28;20137;-72
2021/11/12 08:55:02;;;;;;;82.65;27.42;;;4.00;99.90;;;;;;5025241;28;20333;-72
2021/11/12 08:57:29;;;;;;;100.20;31.55;;;4.00;99.90;;;;;;4988325;28;20567;-72
2021/11/12 08:59:56;;;;;;;96.70;33.20;;;4.00;99.90;;;;;;5025752;28;20049;-72
2021/11/12 09:02:26;;;;;;;97.35;34.13;;;4.00;99.90;;;;;;5025647;28;20041;-72
2021/11/12 09:04:55;;;;;;;100.63;34.53;;;4.20;99.90;;;;;;5040768;28;20393;-72
2021/11/12 09:07:23;;;;;;;92.05;33.65;;;4.20;99.90;;;;;;5014013;28;20046;-72
2021/11/12 09:09:55;;;;;;;112.07;38.17;;;4.20;99.90;;;;;;5004036;28;20069;-73
2021/11/12 09:12:24;;;;;;;90.25;32.50;;;4.20;99.90;;;;;;4989438;28;20056;-72
2021/11/12 09:14:52;;;;;;;76.28;28.83;;;4.10;99.90;;;;;;5025725;28;20049;-72
2021/11/12 09:17:21;;;;;;;87.93;34.63;;;4.10;99.90;;;;;;5007126;28;20508;-72
2021/11/12 09:19:50;;;;;;;84.03;31.25;;;4.00;99.90;;;;;;5007596;28;20052;-72
2021/11/12 09:22:23;;;;;;;72.45;30.73;;;4.00;99.90;;;;;;5007260;28;20059;-72
2021/11/12 09:24:51;;;;;;;70.05;27.42;;;4.10;99.90;;;;;;5006574;28;20714;-72
2021/11/12 09:27:19;;;;;;;66.30;28.92;;;4.20;99.90;;;;;;5023791;28;20054;-73
2021/11/12 09:29:47;;;;;;;68.65;26.48;;;4.00;99.90;;;;;;5006269;28;20127;-72
2021/11/12 09:32:15;;;;;;;71.53;32.42;;;4.00;99.90;;;;;;5024759;28;20068;-73
2021/11/12 09:34:42;;;;;;;66.82;28.95;;;4.10;99.90;;;;;;5006392;28;20132;-73
2021/11/12 09:37:19;;;;;;;59.10;27.10;;;4.10;99.90;;;;;;5020101;28;20050;-73
2021/11/12 09:39:53;;;;;;;57.13;26.65;;;4.10;99.90;;;;;;5005174;28;20049;-73
2021/11/12 09:42:22;;;;;;;45.97;19.27;;;4.00;99.90;;;;;;5005122;28;20045;-73
2021/11/12 09:44:49;;;;;;;51.97;24.70;;;4.00;99.90;;;;;;5022584;28;20376;-73
2021/11/12 09:47:22;;;;;;;60.13;25.80;;;3.80;99.90;;;;;;5023902;28;20545;-73
2021/11/12 09:49:54;;;;;;;52.33;23.65;;;3.80;99.90;;;;;;5025066;28;20304;-73
2021/11/12 09:52:24;;;;;;;57.03;24.33;;;3.90;99.90;;;;;;5023086;28;20200;-73
2021/11/12 09:54:53;;;;;;;53.97;24.45;;;3.90;99.90;;;;;;5022658;28;20095;-73
2021/11/12 09:57:20;;;;;;;48.70;23.42;;;4.00;99.90;;;;;;5023220;28;20049;-73
2021/11/12 09:59:54;;;;;;;51.33;24.45;;;4.00;99.90;;;;;;5023448;28;20710;-73
2021/11/12 10:02:21;;;;;;;54.95;25.42;;;4.10;99.90;;;;;;5023646;28;20336;-73
2021/11/12 10:04:48;;;;;;;49.08;23.95;;;4.20;99.90;;;;;;5024786;28;20469;-73
2021/11/12 10:07:21;;;;;;;53.92;23.98;;;4.20;99.90;;;;;;5004439;28;20099;-73
2021/11/12 10:10:02;;;;;;;52.47;25.05;;;4.20;99.90;;;;;;5008418;28;20045;-73
2021/11/12 10:12:38;;;;;;;42.20;19.98;;;4.30;99.90;;;;;;4992230;28;20540;-73
2021/11/12 10:15:20;;;;;;;44.22;23.05;;;4.30;99.90;;;;;;5021935;28;20083;-73
2021/11/12 10:17:49;;;;;;;49.42;23.73;;;4.30;99.90;;;;;;5006241;28;20049;-73
2021/11/12 10:20:19;;;;;;;45.40;24.25;;;4.30;99.90;;;;;;5006450;28;20520;-73
2021/11/12 10:22:48;;;;;;;44.25;21.90;;;4.50;99.90;;;;;;5022269;28;20543;-73
2021/11/12 10:25:17;;;;;;;45.08;21.98;;;4.60;99.90;;;;;;5019669;28;20111;-73
2021/11/12 10:27:51;;;;;;;53.30;25.90;;;4.60;99.90;;;;;;5023311;28;20053;-73
2021/11/12 10:30:24;;;;;;;41.65;22.92;;;4.60;99.90;;;;;;5006024;28;20431;-73
2021/11/12 10:32:56;;;;;;;46.20;22.42;;;4.70;99.90;;;;;;5006320;28;20069;-73
2021/11/12 10:35:30;;;;;;;39.88;22.58;;;4.80;99.90;;;;;;5005221;28;20060;-73
2021/11/12 10:38:08;;;;;;;48.00;24.23;;;4.90;99.90;;;;;;5023843;28;20459;-73
2021/11/12 10:40:35;;;;;;;45.90;23.40;;;5.00;99.90;;;;;;5022623;28;20045;-73
2021/11/12 10:43:02;;;;;;;42.85;21.90;;;5.10;99.90;;;;;;5024118;28;20057;-73
2021/11/12 10:45:31;;;;;;;44.08;22.45;;;5.20;99.90;;;;;;5022665;28;20064;-73
2021/11/12 10:48:08;;;;;;;44.83;22.70;;;5.30;99.90;;;;;;5005771;28;20052;-73
2021/11/12 10:50:41;;;;;;;37.20;20.85;;;5.60;99.90;;;;;;5023423;28;20520;-73
2021/11/12 10:53:09;;;;;;;38.35;21.35;;;5.80;99.90;;;;;;5023582;28;20069;-73
2021/11/12 10:55:36;;;;;;;39.33;21.50;;;6.20;99.90;;;;;;5004929;28;20041;-73
2021/11/12 10:58:11;;;;;;;36.58;21.15;;;6.40;99.90;;;;;;5004895;28;20546;-73
2021/11/12 11:00:46;;;;;;;33.60;21.52;;;6.70;99.90;;;;;;5004770;28;20212;-74
2021/11/12 11:03:23;;;;;;;35.88;22.83;;;6.90;99.90;;;;;;5023477;28;20463;-73
2021/11/12 11:06:03;;;;;;;36.15;22.40;;;7.00;99.90;;;;;;5005409;28;20726;-73
2021/11/12 11:08:34;;;;;;;38.72;23.67;;;7.10;99.90;;;;;;5022699;28;20479;-73
2021/11/12 11:11:07;;;;;;;37.90;23.30;;;7.30;99.90;;;;;;5002868;28;20255;-73
2021/11/12 11:13:44;;;;;;;39.80;24.15;;;7.20;99.90;;;;;;5024535;28;20054;-73
2021/11/12 11:16:20;;;;;;;35.58;21.50;;;7.30;99.90;;;;;;5022603;28;20045;-73
2021/11/12 11:18:54;;;;;;;39.78;23.88;;;7.50;99.90;;;;;;5023224;28;20601;-73
2021/11/12 11:24:10;;;;;;;35.47;22.20;;;7.60;99.90;;;;;;5003781;28;20061;-73
2021/11/12 11:26:37;;;;;;;33.92;22.20;;;7.50;99.90;;;;;;5022192;28;20144;-73
2021/11/12 11:29:06;;;;;;;35.70;21.52;;;7.50;99.90;;;;;;5022812;28;20061;-73
2021/11/12 11:31:33;;;;;;;35.45;21.83;;;7.60;99.90;;;;;;5019608;28;20527;-73
2021/11/12 11:34:01;;;;;;;35.53;21.60;;;7.60;99.90;;;;;;5021192;28;20049;-73
2021/11/12 11:36:32;;;;;;;37.67;23.67;;;7.50;99.90;;;;;;5009202;28;20049;-73
2021/11/12 11:39:08;;;;;;;43.47;25.15;;;7.50;99.90;;;;;;5022952;28;20072;-73
2021/11/12 11:41:35;;;;;;;35.70;21.67;;;7.40;99.90;;;;;;5005405;28;20160;-73
2021/11/12 11:44:04;;;;;;;38.63;21.98;;;7.60;99.90;;;;;;5021080;28;20092;-73
2021/11/12 11:46:35;;;;;;;33.85;22.35;;;7.80;99.90;;;;;;5003506;28;20057;-73
2021/11/12 11:49:10;;;;;;;36.78;22.55;;;7.80;99.90;;;;;;5022739;28;20467;-73
2021/11/12 11:51:59;;;;;;;40.50;23.23;;;8.00;99.90;;;;;;5004775;28;20053;-73
2021/11/12 11:54:27;;;;;;;41.00;24.27;;;8.30;99.90;;;;;;5003843;28;20668;-73
2021/11/12 11:56:59;;;;;;;40.22;24.63;;;8.40;99.90;;;;;;5003377;28;20152;-73
2021/11/12 11:59:29;;;;;;;39.83;24.02;;;8.50;99.90;;;;;;5004844;28;20057;-73
2021/11/12 12:01:58;;;;;;;39.47;24.73;;;8.50;99.90;;;;;;5021304;28;20049;-73
2021/11/12 12:04:40;;;;;;;39.65;25.58;;;8.50;99.90;;;;;;5004055;28;20053;-73
2021/11/12 12:07:15;;;;;;;38.97;25.40;;;8.50;99.90;;;;;;5022830;28;20061;-73
2021/11/12 12:10:01;;;;;;;;;;;8.40;99.90;;;;;;5004572;28;20065;-73
2021/11/12 12:12:30;;;;;;;37.60;24.83;;;8.60;99.90;;;;;;5020585;28;19936;-73
2021/11/12 12:15:04;;;;;;;37.65;25.08;;;8.70;99.90;;;;;;5022473;28;20038;-73
2021/11/12 12:17:43;;;;;;;35.80;24.40;;;8.80;99.90;;;;;;5026676;28;20046;-73
2021/11/12 12:34:37;;;;;;;34.25;24.63;;;8.80;99.90;;;;;;5024930;28;20049;-73
2021/11/12 13:23:14;;;;;;;48.97;28.15;;;8.80;99.90;;;;;;5015793;28;20045;-73
2021/11/12 13:25:41;;;;;;;42.05;25.88;;;8.50;99.90;;;;;;5009308;28;20053;-73
2021/11/12 13:28:18;;;;;;;49.25;29.00;;;8.50;99.90;;;;;;5007351;28;20495;-73
2021/11/12 13:31:05;;;;;;;51.55;29.38;;;8.50;99.90;;;;;;5000433;28;20230;-73
2021/11/12 13:33:49;;;;;;;40.10;25.02;;;8.40;99.90;;;;;;4987764;28;20054;-73
2021/11/12 13:36:30;;;;;;;40.05;26.08;;;8.50;99.90;;;;;;5020332;28;20045;-73
2021/11/12 13:39:18;;;;;;;47.55;26.80;;;8.40;99.90;;;;;;5023461;28;20049;-73
2021/11/12 13:41:51;;;;;;;45.00;25.67;;;8.40;99.90;;;;;;5021038;28;20331;-73
2021/11/12 13:44:20;;;;;;;43.97;27.75;;;8.50;99.90;;;;;;5003580;28;20518;-74
2021/11/12 13:46:52;;;;;;;51.63;29.58;;;8.30;99.90;;;;;;5004572;28;20053;-73
2021/11/12 13:49:35;;;;;;;42.97;24.83;;;8.20;99.90;;;;;;5024914;28;20191;-73
2021/11/12 13:52:12;;;;;;;53.03;28.52;;;8.10;99.90;;;;;;5024596;28;20049;-73
2021/11/12 13:54:49;;;;;;;50.17;27.83;;;7.90;99.90;;;;;;5005917;28;20048;-73
2021/11/12 13:57:19;;;;;;;43.22;27.45;;;7.70;99.90;;;;;;5023379;28;20052;-73
2021/11/12 13:59:59;;;;;;;46.67;28.42;;;7.60;99.90;;;;;;5025482;28;20060;-73
2021/11/12 14:02:31;;;;;;;50.13;28.35;;;7.60;99.90;;;;;;5024230;28;20045;-73
2021/11/12 14:05:09;;;;;;;53.90;28.98;;;7.50;99.90;;;;;;5025020;28;20143;-73
2021/11/12 14:07:36;;;;;;;49.67;29.13;;;7.40;99.90;;;;;;5004401;28;20053;-73
2021/11/12 14:10:09;;;;;;;48.55;28.95;;;7.30;99.90;;;;;;5006553;28;20507;-73
2021/11/12 14:12:49;;;;;;;52.35;29.98;;;7.30;99.90;;;;;;5024340;28;20480;-73
2021/11/12 14:15:25;;;;;;;52.00;29.90;;;7.10;99.90;;;;;;5002807;28;20074;-73
2021/11/12 14:18:28;;;;;;;50.65;29.70;;;7.00;99.90;;;;;;5005033;28;20057;-73
2021/11/12 14:24:10;;;;;;;55.22;29.17;;;6.90;99.90;;;;;;5002835;28;20061;-73
2021/11/12 14:30:06;;;;;;;50.85;28.00;;;6.70;99.90;;;;;;5004980;28;20062;-73
2021/11/12 14:35:48;;;;;;;59.80;32.60;;;6.60;99.90;;;;;;5004524;28;20049;-73
2021/11/12 14:43:33;;;;;;;54.60;31.45;;;6.50;99.90;;;;;;5006719;28;20060;-73
2021/11/12 14:48:58;;;;;;;57.72;31.17;;;6.40;99.90;;;;;;5009637;28;20336;-73
2021/11/12 14:51:39;;;;;;;58.03;31.20;;;6.40;99.90;;;;;;5022694;28;20049;-73
2021/11/12 14:54:11;;;;;;;57.15;32.03;;;6.30;99.90;;;;;;5023500;28;20096;-73
2021/11/12 14:56:45;;;;;;;60.45;32.45;;;6.20;99.90;;;;;;5004320;28;20063;-73
2021/11/12 14:59:16;;;;;;;55.35;30.92;;;6.20;99.90;;;;;;5023847;28;20053;-73
2021/11/12 15:01:44;;;;;;;66.82;33.80;;;6.20;99.90;;;;;;4987651;28;20056;-73
2021/11/12 15:04:11;;;;;;;56.97;29.77;;;6.20;99.90;;;;;;5021297;28;20393;-73
2021/11/12 15:06:38;;;;;;;61.50;34.08;;;6.10;99.90;;;;;;5021568;28;20045;-73
2021/11/12 15:09:17;;;;;;;57.78;32.10;;;6.00;99.90;;;;;;5023298;28;20057;-73
2021/11/12 15:11:48;;;;;;;64.88;32.78;;;5.90;99.90;;;;;;5019329;28;20554;-73
2021/11/12 15:14:20;;;;;;;58.38;32.20;;;5.90;99.90;;;;;;5020530;28;20072;-73
2021/11/12 15:17:08;;;;;;;61.53;33.10;;;5.80;99.90;;;;;;5022058;28;20083;-73
2021/11/12 15:19:37;;;;;;;62.20;33.35;;;5.80;99.90;;;;;;5023015;28;20060;-73
2021/11/12 15:24:43;;;;;;;70.03;34.38;;;5.70;99.90;;;;;;5022335;28;20049;-72
2021/11/12 15:27:42;;;;;;;65.90;33.63;;;5.70;99.90;;;;;;5020763;28;20057;-73
2021/11/12 15:30:18;;;;;;;63.97;32.97;;;5.60;99.90;;;;;;5023855;28;20046;-72
2021/11/12 15:32:52;;;;;;;62.50;32.45;;;5.50;99.90;;;;;;5006229;28;20049;-72
2021/11/12 15:35:23;;;;;;;58.63;32.63;;;5.50;99.90;;;;;;5018199;28;20080;-73
2021/11/12 15:37:57;;;;;;;55.75;31.20;;;5.40;99.90;;;;;;5005784;28;20625;-73
2021/11/12 15:43:11;;;;;;;68.00;33.80;;;5.40;99.90;;;;;;5021712;28;20061;-72
2021/11/12 15:48:18;;;;;;;71.03;34.80;;;5.30;99.90;;;;;;5004938;28;20318;-72
2021/11/12 15:56:31;;;;;;;65.55;35.45;;;5.10;99.90;;;;;;5008652;28;20137;-72
2021/11/12 15:59:05;;;;;;;76.90;37.25;;;5.10;99.90;;;;;;5006856;28;20070;-72
2021/11/12 16:09:30;;;;;;;;;;;5.10;99.90;;;;;;5027867;28;20053;-72
2021/11/12 16:17:23;;;;;;;70.57;37.15;;;4.90;99.90;;;;;;5006656;28;20119;-72
2021/11/12 16:25:15;;;;;;;75.53;37.20;;;4.70;99.90;;;;;;5007835;28;20049;-72
2021/11/12 16:27:45;;;;;;;76.85;37.47;;;4.70;99.90;;;;;;5025865;28;20136;-73
2021/11/12 16:30:15;;;;;;;78.05;39.15;;;4.70;99.90;;;;;;5008144;28;20068;-72
2021/11/12 16:32:48;;;;;;;69.38;36.83;;;4.60;99.90;;;;;;5028388;28;20072;-72
2021/11/12 16:35:20;;;;;;;70.93;35.33;;;4.50;99.90;;;;;;5006558;28;20052;-72
2021/11/12 16:37:51;;;;;;;82.40;42.30;;;4.40;99.90;;;;;;5025857;28;20042;-72
2021/11/12 16:48:10;;;;;;;77.65;35.58;;;4.30;99.90;;;;;;5025762;28;20072;-72
2021/11/12 16:51:10;;;;;;;79.63;39.22;;;4.30;99.90;;;;;;5006955;28;20049;-72
2021/11/12 16:53:32;;;;;;;83.43;40.20;;;4.30;99.90;;;;;;5005938;28;20523;-72
2021/11/12 17:01:41;;;;;;;102.85;46.97;;;4.00;99.90;;;;;;5005055;28;20042;-73
2021/11/12 17:06:49;;;;;;;105.65;46.05;;;4.00;99.90;;;;;;5025507;28;20144;-72
2021/11/12 17:09:42;;;;;;;107.93;56.00;;;3.90;99.90;;;;;;5004712;28;20140;-72
2021/11/12 17:17:33;;;;;;;118.75;56.38;;;3.90;99.90;;;;;;5005781;28;20047;-74
2021/11/12 17:47:19;;;;;;;108.72;47.95;;;3.60;99.90;;;;;;5006612;28;20061;-74
2021/11/12 18:03:25;;;;;;;101.32;43.83;;;3.40;99.90;;;;;;5024473;28;20053;-72
2021/11/12 18:11:16;;;;;;;97.80;48.83;;;3.50;99.90;;;;;;5024264;28;20148;-72
2021/11/12 21:48:40;;;;;;;52.42;25.35;;;2.60;99.90;;;;;;5023679;28;20260;-74
2021/11/12 21:51:14;;;;;;;51.95;26.48;;;2.70;99.90;;;;;;5025983;28;20144;-72
2021/11/12 21:53:41;;;;;;;63.47;28.70;;;2.70;99.90;;;;;;5007422;28;20054;-72
2021/11/12 21:56:08;;;;;;;55.35;24.00;;;2.70;99.90;;;;;;5006000;28;20404;-72
2021/11/12 21:58:35;;;;;;;55.83;24.50;;;2.70;99.90;;;;;;5023934;28;20057;-72
2021/11/12 22:01:05;;;;;;;52.63;22.25;;;2.60;99.90;;;;;;5023682;28;20042;-72
2021/11/12 22:03:32;;;;;;;45.90;21.70;;;2.60;99.90;;;;;;5025573;28;20141;-71
2021/11/12 22:06:01;;;;;;;49.90;22.70;;;2.50;99.90;;;;;;5025234;28;20045;-72
2021/11/12 22:08:29;;;;;;;52.25;21.70;;;2.60;99.90;;;;;;5006366;28;20049;-72
2021/11/12 22:10:57;;;;;;;55.83;23.75;;;2.60;99.90;;;;;;5023568;28;20038;-74
2021/11/12 22:13:24;;;;;;;58.30;26.77;;;2.70;99.90;;;;;;5025138;28;20356;-74
2021/11/12 22:15:51;;;;;;;57.63;25.73;;;2.70;99.90;;;;;;4990809;28;20103;-75
2021/11/12 22:18:19;;;;;;;45.17;21.52;;;2.70;99.90;;;;;;5024755;28;20053;-74
2021/11/12 22:20:46;;;;;;;46.85;20.45;;;2.60;99.90;;;;;;5006614;28;20971;-72
2021/11/12 22:23:17;;;;;;;41.95;19.20;;;2.60;99.90;;;;;;5006945;28;20044;-72
2021/11/12 22:25:44;;;;;;;52.85;23.02;;;2.60;99.90;;;;;;5006532;28;20123;-72